createdAt,value
2019-06-11T00:02:11.527Z,2.20
2019-06-11T00:04:28.154Z,2.80
2019-06-11T00:06:59.155Z,1.90
2019-06-11T00:09:33.708Z,1.97
2019-06-11T00:12:03.908Z,2.00
2019-06-11T00:14:34.963Z,1.83
2019-06-11T00:17:06.195Z,1.60
2019-06-11T00:19:36.812Z,1.83
2019-06-11T00:22:07.271Z,2.10
2019-06-11T00:24:37.820Z,1.77
2019-06-11T00:27:08.396Z,1.77
2019-06-11T00:29:38.862Z,2.20
2019-06-11T00:32:24.654Z,1.90
2019-06-11T00:34:42.803Z,1.93
2019-06-11T00:37:13.328Z,1.83
2019-06-11T00:39:43.848Z,1.63
2019-06-11T00:42:14.251Z,2.57
2019-06-11T00:44:44.678Z,1.90
2019-06-11T00:47:15.117Z,1.80
2019-06-11T00:49:45.545Z,2.10
2019-06-11T00:52:15.981Z,1.60
2019-06-11T00:54:46.442Z,1.73
2019-06-11T00:57:16.932Z,1.60
2019-06-11T00:59:47.357Z,1.77
2019-06-11T01:02:17.811Z,1.97
2019-06-11T01:04:48.218Z,2.40
2019-06-11T01:07:19.038Z,2.13
2019-06-11T01:09:49.483Z,1.87
2019-06-11T01:12:20.254Z,1.50
2019-06-11T01:14:52.561Z,2.60
2019-06-11T01:17:23.582Z,2.07
2019-06-11T01:19:54.234Z,3.00
2019-06-11T01:22:24.872Z,2.83
2019-06-11T01:24:55.527Z,2.30
2019-06-11T01:27:26.083Z,2.57
2019-06-11T01:29:56.755Z,2.00
2019-06-11T01:32:27.208Z,2.20
2019-06-11T01:34:57.667Z,2.30
2019-06-11T01:37:28.088Z,2.67
2019-06-11T01:39:58.606Z,1.90
2019-06-11T01:42:29.063Z,2.20
2019-06-11T01:44:59.459Z,2.23
2019-06-11T01:47:29.842Z,2.20
2019-06-11T01:50:00.302Z,1.90
2019-06-11T01:52:32.605Z,2.40
2019-06-11T01:55:04.665Z,2.40
2019-06-11T01:57:35.234Z,2.53
2019-06-11T02:00:16.403Z,2.57
2019-06-11T02:02:39.397Z,2.63
2019-06-11T02:05:14.076Z,2.43
2019-06-11T02:07:43.660Z,2.50
2019-06-11T02:12:45.638Z,2.03
2019-06-11T02:15:17.012Z,2.67
2019-06-11T02:17:47.425Z,2.53
2019-06-11T02:20:17.907Z,2.17
2019-06-11T02:22:48.333Z,2.00
2019-06-11T02:25:18.997Z,2.30
2019-06-11T02:27:52.131Z,2.60
2019-06-11T02:30:43.738Z,2.50
2019-06-11T02:32:55.163Z,2.53
2019-06-11T02:35:44.380Z,2.53
2019-06-11T02:38:02.065Z,2.40
2019-06-11T02:40:32.783Z,2.70
2019-06-11T02:43:02.550Z,2.23
2019-06-11T02:45:33.984Z,2.17
2019-06-11T02:48:05.105Z,2.30
2019-06-11T02:50:35.553Z,2.40
2019-06-11T02:53:07.966Z,2.30
2019-06-11T02:55:41.552Z,1.97
2019-06-11T02:58:15.231Z,2.50
2019-06-11T03:01:15.358Z,2.40
2019-06-11T03:03:42.898Z,2.80
2019-06-11T03:06:20.367Z,3.27
2019-06-11T03:08:47.764Z,2.33
2019-06-11T03:11:30.799Z,3.47
2019-06-11T03:13:53.791Z,3.47
2019-06-11T03:16:37.343Z,3.00
2019-06-11T03:19:03.170Z,3.73
2019-06-11T03:21:38.466Z,3.37
2019-06-11T03:24:06.297Z,3.77
2019-06-11T03:26:36.731Z,3.10
2019-06-11T03:29:07.155Z,3.63
2019-06-11T03:32:31.670Z,3.40
2019-06-11T03:34:46.385Z,3.40
2019-06-11T03:37:16.966Z,2.97
2019-06-11T03:39:26.204Z,3.23
2019-06-11T03:41:46.283Z,3.10
2019-06-11T03:44:18.739Z,3.03
2019-06-11T03:46:51.137Z,3.43
2019-06-11T03:49:30.873Z,3.20
2019-06-11T03:51:53.713Z,2.93
2019-06-11T03:54:29.129Z,2.73
2019-06-11T03:56:56.304Z,2.20
2019-06-11T03:59:30.829Z,2.70
2019-06-11T04:02:01.747Z,2.63
2019-06-11T04:04:35.729Z,3.03
2019-06-11T04:07:15.310Z,3.00
2019-06-11T04:09:35.734Z,3.10
2019-06-11T04:12:06.316Z,2.67
2019-06-11T04:14:36.770Z,3.00
2019-06-11T04:17:18.786Z,2.17
2019-06-11T04:19:41.426Z,2.10
2019-06-11T04:22:11.704Z,2.67
2019-06-11T04:24:43.248Z,2.87
2019-06-11T04:27:15.232Z,2.43
2019-06-11T04:29:46.255Z,2.60
2019-06-11T04:32:17.408Z,2.60
2019-06-11T04:34:51.782Z,2.83
2019-06-11T04:37:46.209Z,2.57
2019-06-11T04:39:53.472Z,2.50
2019-06-11T04:42:30.752Z,3.10
2019-06-11T04:45:01.747Z,2.90
2019-06-11T04:47:42.206Z,3.37
2019-06-11T04:50:03.451Z,2.87
2019-06-11T04:52:35.021Z,2.77
2019-06-11T04:55:08.448Z,3.77
2019-06-11T04:57:41.517Z,3.70
2019-06-11T05:00:18.828Z,4.25
2019-06-11T05:04:31.987Z,3.30
2019-06-11T05:05:20.250Z,2.97
2019-06-11T05:08:01.310Z,2.23
2019-06-11T05:10:26.515Z,2.30
2019-06-11T05:12:54.423Z,2.07
2019-06-11T05:15:29.053Z,1.53
2019-06-11T05:17:56.983Z,1.63
2019-06-11T05:20:34.658Z,1.37
2019-06-11T05:23:02.245Z,1.80
2019-06-11T05:25:52.151Z,1.63
2019-06-11T05:28:04.666Z,1.67
2019-06-11T05:30:40.115Z,1.40
2019-06-11T05:33:07.245Z,1.73
2019-06-11T05:35:40.652Z,1.97
2019-06-11T05:38:21.603Z,1.93
2019-06-11T05:40:42.059Z,1.40
2019-06-11T05:43:12.472Z,2.33
2019-06-11T05:45:43.203Z,1.67
2019-06-11T05:48:13.697Z,1.80
2019-06-11T05:50:44.147Z,1.90
2019-06-11T05:53:14.787Z,3.23
2019-06-11T05:55:45.230Z,1.73
2019-06-11T05:58:15.639Z,1.50
2019-06-11T06:00:46.086Z,1.50
2019-06-11T06:03:16.679Z,1.37
2019-06-11T06:05:47.142Z,1.33
2019-06-11T06:08:20.392Z,1.37
2019-06-11T06:10:50.714Z,1.73
2019-06-11T06:13:22.012Z,1.50
2019-06-11T06:15:52.679Z,1.70
2019-06-11T06:18:23.991Z,1.83
2019-06-11T06:20:54.563Z,1.20
2019-06-11T06:23:26.222Z,1.70
2019-06-11T06:25:56.784Z,1.80
2019-06-11T06:28:27.182Z,1.70
2019-06-11T06:30:57.692Z,1.40
2019-06-11T06:33:28.455Z,1.37
2019-06-11T06:36:00.240Z,1.87
2019-06-11T06:38:42.649Z,1.60
2019-06-11T06:41:03.030Z,1.60
2019-06-11T06:43:37.009Z,1.60
2019-06-11T06:46:05.692Z,1.33
2019-06-11T06:48:37.025Z,1.53
2019-06-11T06:51:07.655Z,1.57
2019-06-11T06:53:38.051Z,1.37
2019-06-11T06:56:10.135Z,1.20
2019-06-11T06:58:41.589Z,1.40
2019-06-11T07:01:12.070Z,1.63
2019-06-11T07:03:44.508Z,1.40
2019-06-11T07:06:14.698Z,1.10
2019-06-11T07:09:00.343Z,1.83
2019-06-11T07:11:17.420Z,1.20
2019-06-11T07:13:47.867Z,1.30
2019-06-11T07:16:18.300Z,1.17
2019-06-11T07:18:54.629Z,1.23
2019-06-11T07:21:21.613Z,1.30
2019-06-11T07:23:52.485Z,1.30
2019-06-11T07:26:22.887Z,1.63
2019-06-11T07:28:53.433Z,1.27
2019-06-11T07:31:24.167Z,1.20
2019-06-11T07:33:54.618Z,1.27
2019-06-11T07:36:25.043Z,1.13
2019-06-11T07:39:16.229Z,1.90
2019-06-11T07:41:30.611Z,1.30
2019-06-11T07:44:00.433Z,1.30
2019-06-11T07:46:37.582Z,1.30
2019-06-11T07:49:03.696Z,0.97
2019-06-11T07:51:37.408Z,0.97
2019-06-11T07:54:06.482Z,1.47
2019-06-11T07:56:37.504Z,1.40
2019-06-11T07:59:11.767Z,1.17
2019-06-11T08:01:47.834Z,1.03
2019-06-11T08:04:13.650Z,1.00
2019-06-11T08:06:50.554Z,1.00
2019-06-11T08:09:40.879Z,0.90
2019-06-11T08:11:55.120Z,1.27
2019-06-11T08:14:22.831Z,1.03
2019-06-11T08:16:56.222Z,1.23
2019-06-11T08:19:37.793Z,1.33
2019-06-11T08:22:20.911Z,1.07
2019-06-11T08:24:34.683Z,1.40
2019-06-11T08:29:34.914Z,1.60
2019-06-11T08:32:05.420Z,1.50
2019-06-11T08:34:36.250Z,1.30
2019-06-11T08:37:06.707Z,1.30
2019-06-11T08:39:37.484Z,1.30
2019-06-11T08:42:11.749Z,1.17
2019-06-11T08:45:02.145Z,1.50
2019-06-11T08:47:14.703Z,1.20
2019-06-11T08:49:47.923Z,1.57
2019-06-11T08:52:19.863Z,1.20
2019-06-11T08:54:51.310Z,1.60
2019-06-11T08:57:22.010Z,1.20
2019-06-11T09:00:27.954Z,1.30
2019-06-11T09:02:24.687Z,1.27
2019-06-11T09:04:55.107Z,1.37
2019-06-11T09:07:25.558Z,1.40
2019-06-11T09:09:56.127Z,1.37
2019-06-11T09:12:26.603Z,1.40
2019-06-11T09:14:57.059Z,1.60
2019-06-11T09:17:27.526Z,1.53
2019-06-11T09:19:57.931Z,1.53
2019-06-11T09:22:30.307Z,1.30
2019-06-11T09:25:00.857Z,1.30
2019-06-11T09:27:31.428Z,1.27
2019-06-11T09:30:09.733Z,1.30
2019-06-11T09:32:34.053Z,1.40
2019-06-11T09:35:04.839Z,1.20
2019-06-11T09:37:35.231Z,1.13
2019-06-11T09:40:07.105Z,1.70
2019-06-11T09:42:37.654Z,1.30
2019-06-11T09:45:10.767Z,1.20
2019-06-11T09:47:49.358Z,1.20
2019-06-11T09:50:13.455Z,1.23
2019-06-11T09:52:44.689Z,1.17
2019-06-11T09:55:17.736Z,1.53
2019-06-11T09:57:58.373Z,1.73
2019-06-11T10:00:21.798Z,1.00
2019-06-11T10:02:53.768Z,1.50
2019-06-11T10:05:24.337Z,1.40
2019-06-11T10:07:54.770Z,1.50
2019-06-11T10:10:39.746Z,1.20
2019-06-11T10:12:57.541Z,1.10
2019-06-11T10:15:30.276Z,0.90
2019-06-11T10:18:00.197Z,1.00
2019-06-11T10:20:30.616Z,1.30
2019-06-11T10:23:01.245Z,1.20
2019-06-11T10:25:33.775Z,1.10
2019-06-11T10:28:17.078Z,1.07
2019-06-11T10:30:38.468Z,0.90
2019-06-11T10:33:10.549Z,0.80
2019-06-11T10:35:41.327Z,0.90
2019-06-11T10:38:11.795Z,1.07
2019-06-11T10:40:42.161Z,1.03
2019-06-11T10:43:12.841Z,1.20
2019-06-11T10:45:44.346Z,0.90
2019-06-11T10:48:17.872Z,0.73
2019-06-11T10:50:47.094Z,0.97
2019-06-11T10:53:17.527Z,1.10
2019-06-11T10:55:52.231Z,1.20
2019-06-11T10:58:21.592Z,1.03
2019-06-11T11:00:53.534Z,0.87
2019-06-11T11:03:24.100Z,0.90
2019-06-11T11:05:56.563Z,1.13
2019-06-11T11:08:26.954Z,1.00
2019-06-11T11:10:59.426Z,0.90
2019-06-11T11:13:30.748Z,1.00
2019-06-11T11:16:01.615Z,1.13
2019-06-11T11:18:32.316Z,1.07
2019-06-11T11:21:02.854Z,1.13
2019-06-11T11:23:33.383Z,0.93
2019-06-11T11:26:08.436Z,0.77
2019-06-11T11:28:35.951Z,1.00
2019-06-11T11:31:06.590Z,2.50
2019-06-11T11:33:37.122Z,1.40
2019-06-11T11:36:07.551Z,1.50
2019-06-11T11:38:37.997Z,1.10
2019-06-11T11:41:10.255Z,0.80
2019-06-11T11:43:43.968Z,1.10
2019-06-11T11:46:15.363Z,1.30
2019-06-11T11:48:47.154Z,0.90
2019-06-11T11:51:18.070Z,1.27
2019-06-11T11:53:50.987Z,1.00
2019-06-11T11:56:23.551Z,1.30
2019-06-11T11:58:57.939Z,1.20
2019-06-11T12:01:27.938Z,1.17
2019-06-11T12:04:03.076Z,1.23
2019-06-11T12:06:31.408Z,1.50
2019-06-11T12:09:03.496Z,1.60
2019-06-11T12:11:33.867Z,1.03
2019-06-11T12:14:04.297Z,1.37
2019-06-11T12:16:38.587Z,1.40
2019-06-11T12:19:14.815Z,1.23
2019-06-11T12:21:41.358Z,1.33
2019-06-11T12:24:11.252Z,1.10
2019-06-11T12:26:41.706Z,1.20
2019-06-11T12:29:12.123Z,1.20
2019-06-11T12:31:42.913Z,1.10
2019-06-11T12:34:13.381Z,1.37
2019-06-11T12:36:43.822Z,1.00
2019-06-11T12:39:14.279Z,1.30
2019-06-11T12:41:48.429Z,1.00
2019-06-11T12:44:17.043Z,1.37
2019-06-11T12:46:47.481Z,1.10
2019-06-11T12:49:17.960Z,1.30
2019-06-11T12:51:52.527Z,1.50
2019-06-11T12:54:21.034Z,1.27
2019-06-11T12:56:54.526Z,1.00
2019-06-11T12:59:24.344Z,1.13
2019-06-11T13:01:55.059Z,1.40
2019-06-11T13:04:25.594Z,1.33
2019-06-11T13:06:56.006Z,1.20
2019-06-11T13:09:26.469Z,0.93
2019-06-11T13:11:58.075Z,1.03
2019-06-11T13:14:31.083Z,1.20
2019-06-11T13:17:07.798Z,1.30
2019-06-11T13:19:33.648Z,1.20
2019-06-11T13:22:06.008Z,1.50
2019-06-11T13:24:36.450Z,1.00
2019-06-11T13:27:06.956Z,1.33
2019-06-11T13:29:37.427Z,1.00
2019-06-11T13:32:08.186Z,1.10
2019-06-11T13:34:39.365Z,1.10
2019-06-11T13:37:10.631Z,1.13
2019-06-11T13:39:42.022Z,1.30
2019-06-11T13:42:17.044Z,1.37
2019-06-11T13:44:44.829Z,1.07
2019-06-11T13:47:15.345Z,1.20
2019-06-11T13:49:45.947Z,1.07
2019-06-11T13:52:16.633Z,1.07
2019-06-11T13:54:47.041Z,1.27
2019-06-11T13:57:21.391Z,1.17
2019-06-11T13:59:51.133Z,1.00
2019-06-11T14:02:22.109Z,1.43
2019-06-11T14:04:52.956Z,1.10
2019-06-11T14:07:23.653Z,1.27
2019-06-11T14:09:54.972Z,1.10
2019-06-11T14:12:25.558Z,1.00
2019-06-11T14:14:57.332Z,1.33
2019-06-11T14:17:29.941Z,1.20
2019-06-11T14:20:04.051Z,1.50
2019-06-11T14:22:32.850Z,1.37
2019-06-11T14:25:03.653Z,1.10
2019-06-11T14:27:34.237Z,1.17
2019-06-11T14:30:15.559Z,1.10
2019-06-11T14:32:37.696Z,1.50
2019-06-11T14:35:11.532Z,1.47
2019-06-11T14:37:43.227Z,1.40
2019-06-11T14:40:14.904Z,1.70
2019-06-11T14:42:45.582Z,1.20
2019-06-11T14:45:16.079Z,1.50
2019-06-11T14:47:46.498Z,1.30
2019-06-11T14:50:17.620Z,1.53
2019-06-11T14:52:49.128Z,1.33
2019-06-11T14:55:20.807Z,1.10
2019-06-11T14:57:51.411Z,1.30
2019-06-11T15:00:22.869Z,1.47
2019-06-11T15:02:53.324Z,1.77
2019-06-11T15:05:23.801Z,1.40
2019-06-11T15:07:54.252Z,1.30
2019-06-11T15:10:24.723Z,1.13
2019-06-11T15:12:55.165Z,1.47
2019-06-11T15:15:27.877Z,1.23
2019-06-11T15:18:01.100Z,1.67
2019-06-11T15:20:31.313Z,1.13
2019-06-11T15:23:03.357Z,1.40
2019-06-11T15:25:34.147Z,1.50
2019-06-11T15:28:05.567Z,1.37
2019-06-11T15:30:36.850Z,1.33
2019-06-11T15:33:09.235Z,1.30
2019-06-11T15:35:42.585Z,1.30
2019-06-11T15:38:17.524Z,1.50
2019-06-11T15:40:44.829Z,1.00
2019-06-11T15:43:17.750Z,1.37
2019-06-11T15:45:48.244Z,1.33
2019-06-11T15:48:21.434Z,3.73
2019-06-11T15:50:51.888Z,1.30
2019-06-11T15:53:23.605Z,1.20
2019-06-11T15:55:54.062Z,1.27
2019-06-11T15:58:24.480Z,1.67
2019-06-11T16:00:54.912Z,1.40
2019-06-11T16:03:25.644Z,1.30
2019-06-11T16:05:56.366Z,1.57
2019-06-11T16:08:26.981Z,1.20
2019-06-11T16:10:59.943Z,1.57
2019-06-11T16:13:30.822Z,1.20
2019-06-11T16:16:09.265Z,1.57
2019-06-11T16:18:34.964Z,1.37
2019-06-11T16:21:06.124Z,1.40
2019-06-11T16:23:36.870Z,1.50
2019-06-11T16:26:08.112Z,1.47
2019-06-11T16:28:40.652Z,1.63
2019-06-11T16:31:14.209Z,1.13
2019-06-11T16:33:42.965Z,1.50
2019-06-11T16:36:17.552Z,1.50
2019-06-11T16:38:45.745Z,1.13
2019-06-11T16:41:18.617Z,1.40
2019-06-11T16:43:50.385Z,1.10
2019-06-11T16:46:25.770Z,1.53
2019-06-11T16:48:53.496Z,1.50
2019-06-11T16:51:24.011Z,1.33
2019-06-11T16:53:54.534Z,1.53
2019-06-11T16:56:25.042Z,1.97
2019-06-11T16:58:55.687Z,1.33
2019-06-11T17:01:26.134Z,1.53
2019-06-11T17:03:56.822Z,1.17
2019-06-11T17:06:27.587Z,1.57
2019-06-11T17:09:00.404Z,1.50
2019-06-11T17:11:30.895Z,1.40
2019-06-11T17:14:01.668Z,1.50
2019-06-11T17:16:36.429Z,1.20
2019-06-11T17:19:04.270Z,1.47
2019-06-11T17:21:34.799Z,2.40
2019-06-11T17:24:05.534Z,1.40
2019-06-11T17:26:36.055Z,1.60
2019-06-11T17:29:07.048Z,2.00
2019-06-11T17:31:37.578Z,1.50
2019-06-11T17:34:10.341Z,1.60
2019-06-11T17:36:40.662Z,1.40
2019-06-11T17:39:12.297Z,1.23
2019-06-11T17:41:42.796Z,1.57
2019-06-11T17:44:16.146Z,1.30
2019-06-11T17:46:47.139Z,1.47
2019-06-11T17:49:21.068Z,1.80
2019-06-11T17:51:51.771Z,2.20
2019-06-11T17:54:25.834Z,1.37
2019-06-11T17:56:55.541Z,1.97
2019-06-11T17:59:27.036Z,1.70
2019-06-11T18:01:57.727Z,1.50
2019-06-11T18:04:29.169Z,1.67
2019-06-11T18:07:01.875Z,1.73
2019-06-11T18:09:32.594Z,1.67
2019-06-11T18:12:04.840Z,1.70
2019-06-11T18:14:35.320Z,1.63
2019-06-11T18:17:05.959Z,1.60
2019-06-11T18:19:37.211Z,2.87
2019-06-11T18:22:07.722Z,1.60
2019-06-11T18:24:40.871Z,2.10
2019-06-11T18:27:10.486Z,1.60
2019-06-11T18:29:41.480Z,1.73
2019-06-11T18:32:12.037Z,1.95
2019-06-11T18:34:42.557Z,1.60
2019-06-11T18:37:13.014Z,1.67
2019-06-11T18:39:43.538Z,1.97
2019-06-11T18:42:14.278Z,2.27
2019-06-11T18:44:45.090Z,1.33
2019-06-11T18:47:15.857Z,1.57
2019-06-11T18:49:46.347Z,1.73
2019-06-11T18:52:16.900Z,1.60
2019-06-11T18:54:47.447Z,1.60
2019-06-11T18:57:19.988Z,1.80
2019-06-11T18:59:50.567Z,1.73
2019-06-11T19:02:24.209Z,1.60
2019-06-11T19:04:53.721Z,1.60
2019-06-11T19:07:26.261Z,1.80
2019-06-11T19:09:56.654Z,1.53
2019-06-11T19:12:28.185Z,1.87
2019-06-11T19:15:00.176Z,2.13
2019-06-11T19:17:44.595Z,1.63
2019-06-11T19:20:11.331Z,1.67
2019-06-11T19:22:41.385Z,1.63
2019-06-11T19:25:12.242Z,1.83
2019-06-11T19:27:46.634Z,1.70
2019-06-11T19:30:16.110Z,1.90
2019-06-11T19:32:46.661Z,1.90
2019-06-11T19:35:20.025Z,1.80
2019-06-11T19:37:53.391Z,2.30
2019-06-11T19:40:24.500Z,1.60
2019-06-11T19:42:55.167Z,2.00
2019-06-11T19:45:26.137Z,1.67
2019-06-11T19:48:02.024Z,2.00
2019-06-11T19:50:32.069Z,2.00
2019-06-11T19:53:01.808Z,2.07
2019-06-11T19:55:34.994Z,1.60
2019-06-11T19:58:04.828Z,1.50
2019-06-11T20:00:38.060Z,1.90
2019-06-11T20:03:10.301Z,1.87
2019-06-11T20:05:40.924Z,1.80
2019-06-11T20:08:11.515Z,1.97
2019-06-11T20:10:45.592Z,1.87
2019-06-11T20:13:14.351Z,1.80
2019-06-11T20:15:44.764Z,2.20
2019-06-11T20:18:15.333Z,2.00
2019-06-11T20:20:46.036Z,1.77
2019-06-11T20:23:16.532Z,2.43
2019-06-11T20:25:47.050Z,1.93
2019-06-11T20:28:20.082Z,1.63
2019-06-11T20:30:50.237Z,2.30
2019-06-11T20:33:21.028Z,1.57
2019-06-11T20:35:51.524Z,1.67
2019-06-11T20:38:22.256Z,1.73
2019-06-11T20:40:52.765Z,1.70
2019-06-11T20:43:23.406Z,2.00
2019-06-11T20:45:54.625Z,1.90
2019-06-11T20:48:26.963Z,1.97
2019-06-11T20:50:57.273Z,1.83
2019-06-11T20:53:27.729Z,1.70
2019-06-11T20:56:00.304Z,1.80
2019-06-11T20:58:31.869Z,1.60
2019-06-11T21:01:04.005Z,1.60
2019-06-11T21:03:34.775Z,1.83
2019-06-11T21:06:05.441Z,1.77
2019-06-11T21:08:37.182Z,2.00
2019-06-11T21:11:11.321Z,1.77
2019-06-11T21:13:44.587Z,1.73
2019-06-11T21:16:14.668Z,1.80
2019-06-11T21:18:48.768Z,1.73
2019-06-11T21:21:17.589Z,1.57
2019-06-11T21:23:50.482Z,1.37
2019-06-11T21:26:20.801Z,1.90
2019-06-11T21:28:51.407Z,2.03
2019-06-11T21:31:21.917Z,1.40
2019-06-11T21:33:52.608Z,1.50
2019-06-11T21:36:23.138Z,1.63
2019-06-11T21:38:53.664Z,1.50
2019-06-11T21:41:24.447Z,1.77
2019-06-11T21:43:54.881Z,1.70
2019-06-11T21:46:25.563Z,1.83
2019-06-11T21:49:05.425Z,1.87
2019-06-11T21:51:30.268Z,1.60
2019-06-11T21:54:01.161Z,1.50
2019-06-11T21:56:31.677Z,1.80
2019-06-11T21:59:02.123Z,1.87
2019-06-11T22:01:32.514Z,1.63
2019-06-11T22:04:03.027Z,1.67
2019-06-11T22:06:33.658Z,1.50
2019-06-11T22:09:05.160Z,1.73
2019-06-11T22:11:36.538Z,1.60
2019-06-11T22:14:07.612Z,1.40
2019-06-11T22:16:39.513Z,2.30
2019-06-11T22:19:17.733Z,1.90
2019-06-11T22:21:46.005Z,1.63
2019-06-11T22:24:14.960Z,1.93
2019-06-11T22:26:47.293Z,2.00
2019-06-11T22:29:17.677Z,1.83
2019-06-11T22:31:50.697Z,1.60
2019-06-11T22:34:20.761Z,1.80
2019-06-11T22:36:51.604Z,3.00
2019-06-11T22:39:22.022Z,1.73
2019-06-11T22:41:52.857Z,1.80
2019-06-11T22:44:23.327Z,2.13
2019-06-11T22:46:54.090Z,2.10
2019-06-11T22:49:32.802Z,2.23
2019-06-11T22:51:58.696Z,1.80
2019-06-11T22:54:30.220Z,1.83
2019-06-11T22:57:01.165Z,1.53
2019-06-11T22:59:31.510Z,2.17
2019-06-11T23:02:01.981Z,1.97
2019-06-11T23:04:32.411Z,2.00
2019-06-11T23:07:02.857Z,2.10
2019-06-11T23:09:33.239Z,2.10
2019-06-11T23:12:03.718Z,2.60
2019-06-11T23:14:34.235Z,1.50
2019-06-11T23:17:04.655Z,2.30
2019-06-11T23:19:47.138Z,2.10
2019-06-11T23:22:07.230Z,2.30
2019-06-11T23:24:37.667Z,2.20
2019-06-11T23:27:10.515Z,2.17
2019-06-11T23:29:41.054Z,1.90
2019-06-11T23:32:11.629Z,2.07
2019-06-11T23:34:42.029Z,2.37
2019-06-11T23:37:12.478Z,2.20
2019-06-11T23:39:44.107Z,2.07
2019-06-11T23:42:14.729Z,2.10
2019-06-11T23:44:46.329Z,1.70
2019-06-11T23:47:17.064Z,2.00
2019-06-11T23:50:04.986Z,1.40
2019-06-11T23:52:19.603Z,1.70
2019-06-11T23:54:52.026Z,2.13
2019-06-11T23:57:22.221Z,1.87
2019-06-11T23:59:53.598Z,1.90
